Time;durP1;ratioP1;P1;durP2;ratioP2;P2;SDS_P1;SDS_P2;PMS_P1;PMS_P2;Temp;Humidity;BMP_temperature;BMP_pressure;BME280_temperature;BME280_humidity;BME280_pressure;Samples;Min_cycle;Max_cycle;Signal;HPM_P1;HPM_P2
2021/08/10 00:08:49;;;;;;;7.2;5.4;;;;;;;15.98;100;98932.66;;;;
2021/08/10 00:18:49;;;;;;;8.4;4.3;;;;;;;16.01;100;98925.74;;;;
2021/08/10 00:28:49;;;;;;;8.1;4.9;;;;;;;15.9;100;98875.63;;;;
2021/08/10 00:38:47;;;;;;;7.2;3.6;;;;;;;15.99;100;98877.16;;;;
2021/08/10 00:48:47;;;;;;;10.6;4.2;;;;;;;16.14;100;98886.58;;;;
2021/08/10 00:58:46;;;;;;;9.7;4.4;;;;;;;16.24;100;98901.69;;;;
2021/08/10 01:08:46;;;;;;;6.9;4;;;;;;;16.3;100;98908.5;;;;
2021/08/10 01:18:46;;;;;;;9.7;5.9;;;;;;;16.29;100;98896.82;;;;
2021/08/10 01:28:45;;;;;;;9.3;4.8;;;;;;;16.32;100;98892.63;;;;
2021/08/10 01:38:45;;;;;;;8.6;4.9;;;;;;;16.34;100;98899.34;;;;
2021/08/10 01:48:44;;;;;;;9.5;4.4;;;;;;;16.36;100;98912.58;;;;
2021/08/10 01:58:44;;;;;;;9.5;5;;;;;;;16.43;100;98919.06;;;;
2021/08/10 02:08:43;;;;;;;7.7;4.8;;;;;;;16.4;100;98897.98;;;;
2021/08/10 02:18:43;;;;;;;8.5;4;;;;;;;16.44;100;98898.9;;;;
2021/08/10 02:28:43;;;;;;;7.9;4.9;;;;;;;16.41;100;98890.62;;;;
2021/08/10 02:38:42;;;;;;;8.6;4.5;;;;;;;16.59;100;98894.75;;;;
2021/08/10 02:48:42;;;;;;;8.2;5;;;;;;;16.51;100;98896.41;;;;
2021/08/10 02:58:42;;;;;;;7.6;4.8;;;;;;;16.48;100;98882.69;;;;
2021/08/10 03:08:41;;;;;;;5.9;3.8;;;;;;;16.54;100;98895.73;;;;
2021/08/10 03:18:41;;;;;;;8;4.8;;;;;;;16.54;100;98890.29;;;;
2021/08/10 03:28:41;;;;;;;10.3;5.6;;;;;;;16.57;100;98886.12;;;;
2021/08/10 03:38:40;;;;;;;7.8;5;;;;;;;16.59;100;98881.15;;;;
2021/08/10 03:48:41;;;;;;;9.6;5;;;;;;;16.59;100;98870.27;;;;
2021/08/10 03:58:39;;;;;;;7.2;5.5;;;;;;;16.38;100;98886.63;;;;
2021/08/10 04:08:39;;;;;;;8.8;5.8;;;;;;;16.39;100;98915.42;;;;
2021/08/10 04:18:39;;;;;;;14.9;7;;;;;;;16.38;100;98913.06;;;;
2021/08/10 04:28:38;;;;;;;12;6.4;;;;;;;16.43;100;98918.27;;;;
2021/08/10 04:38:38;;;;;;;9;6.6;;;;;;;16.64;100;98905.4;;;;
2021/08/10 04:48:37;;;;;;;14.1;7.5;;;;;;;16.79;100;98887.61;;;;
2021/08/10 04:58:37;;;;;;;10.5;6.3;;;;;;;16.87;100;98886.7;;;;
2021/08/10 05:08:36;;;;;;;10.4;6.8;;;;;;;16.94;100;98884.97;;;;
2021/08/10 05:18:36;;;;;;;10;6;;;;;;;17.12;100;98893.69;;;;
2021/08/10 05:28:36;;;;;;;11.2;7.3;;;;;;;17.71;100;98917.65;;;;
2021/08/10 05:38:35;;;;;;;12.3;7.1;;;;;;;18.15;100;98921.23;;;;
2021/08/10 05:48:35;;;;;;;8.8;6.1;;;;;;;18.63;100;98912.77;;;;
2021/08/10 05:58:35;;;;;;;9.5;7.8;;;;;;;19.01;100;98906.66;;;;
2021/08/10 06:08:35;;;;;;;8.6;5.8;;;;;;;19.35;100;98930.48;;;;
2021/08/10 06:18:35;;;;;;;9;5.6;;;;;;;19.58;100;98928.66;;;;
2021/08/10 06:28:35;;;;;;;6.7;4.1;;;;;;;19.76;100;98928.23;;;;
2021/08/10 06:38:35;;;;;;;6.5;3.4;;;;;;;20.27;100;98917.92;;;;
2021/08/10 06:48:35;;;;;;;6.1;3.4;;;;;;;20.71;100;98929.28;;;;
2021/08/10 06:58:36;;;;;;;7.5;4.3;;;;;;;20.91;100;98923.36;;;;
2021/08/10 07:08:36;;;;;;;11.1;2.7;;;;;;;20.97;100;98929.31;;;;
2021/08/10 07:18:36;;;;;;;5.7;3.2;;;;;;;21.31;100;98930.27;;;;
2021/08/10 07:28:36;;;;;;;6.1;3.1;;;;;;;21.57;100;98936.5;;;;
2021/08/10 07:38:37;;;;;;;5.4;3.3;;;;;;;21.81;100;98926.22;;;;
2021/08/10 07:48:37;;;;;;;7.5;3.4;;;;;;;22.05;100;98921.05;;;;
2021/08/10 07:58:38;;;;;;;5.6;2.6;;;;;;;22.44;100;98909.69;;;;
2021/08/10 08:08:38;;;;;;;9.4;4;;;;;;;22.72;100;98903.69;;;;
2021/08/10 08:18:40;;;;;;;8.6;5.1;;;;;;;23.17;100;98894.2;;;;
2021/08/10 08:28:39;;;;;;;8;4.9;;;;;;;23.44;100;98892.81;;;;
2021/08/10 08:38:40;;;;;;;6.6;3.2;;;;;;;23.59;100;98883.46;;;;
2021/08/10 08:48:41;;;;;;;6;2.4;;;;;;;23.95;100;98874.14;;;;
2021/08/10 08:58:41;;;;;;;4.2;2.2;;;;;;;23.97;100;98873.77;;;;
2021/08/10 09:08:43;;;;;;;13.7;3.3;;;;;;;24.62;100;98861.67;;;;
2021/08/10 09:18:43;;;;;;;5.1;2.4;;;;;;;24.67;100;98853.02;;;;
2021/08/10 09:28:43;;;;;;;4.5;2.1;;;;;;;24.39;100;98849.09;;;;
2021/08/10 09:38:44;;;;;;;4.4;2.1;;;;;;;25.05;100;98843.95;;;;
2021/08/10 09:48:45;;;;;;;4.7;2.1;;;;;;;25.24;100;98843.49;;;;
2021/08/10 09:58:56;;;;;;;3.9;1.8;;;;;;;25.42;100;98835.95;;;;
2021/08/10 10:08:46;;;;;;;3.1;1.5;;;;;;;25.8;100;98836.98;;;;
2021/08/10 10:18:47;;;;;;;4.5;2.3;;;;;;;25.98;100;98837.68;;;;
2021/08/10 10:28:48;;;;;;;3.3;2.1;;;;;;;26.17;100;98830.08;;;;
2021/08/10 10:38:49;;;;;;;5.5;3;;;;;;;26.33;100;98813.79;;;;
2021/08/10 10:48:50;;;;;;;3.7;2;;;;;;;26.61;100;98813.55;;;;
2021/08/10 10:58:50;;;;;;;6.7;2.9;;;;;;;26.43;100;98804.63;;;;
2021/08/10 11:08:51;;;;;;;3.1;1.2;;;;;;;26.99;100;98789.5;;;;
2021/08/10 11:18:52;;;;;;;3.9;1.6;;;;;;;27.27;95.45117;98769.8;;;;
2021/08/10 11:28:53;;;;;;;4.8;2.4;;;;;;;27.21;100;98765.94;;;;
2021/08/10 11:39:12;;;;;;;3.9;2.4;;;;;;;27.27;100;98758.73;;;;
2021/08/10 11:48:55;;;;;;;4.3;2.5;;;;;;;27.53;100;98761.97;;;;
2021/08/10 11:58:57;;;;;;;4.9;2.8;;;;;;;27.8;98.52539;98752.48;;;;
2021/08/10 12:08:58;;;;;;;4.7;2.8;;;;;;;27.8;100;98744.17;;;;
2021/08/10 12:18:59;;;;;;;7.8;2.2;;;;;;;27.76;97.10352;98734.36;;;;
2021/08/10 12:29:01;;;;;;;5.5;2.5;;;;;;;27.96;97.8584;98713.86;;;;
2021/08/10 12:39:01;;;;;;;4.6;1.8;;;;;;;28.44;96.72168;98698.81;;;;
2021/08/10 12:49:02;;;;;;;4.9;2.5;;;;;;;27.98;81.96387;98680.96;;;;
2021/08/10 12:59:03;;;;;;;3.7;2;;;;;;;28.25;80.55664;98660.75;;;;
2021/08/10 13:09:06;;;;;;;4.1;2.1;;;;;;;28.75;72.80273;98643.95;;;;
2021/08/10 13:19:06;;;;;;;5.6;2.1;;;;;;;28.61;76.5332;98628.36;;;;
2021/08/10 13:29:07;;;;;;;3.7;1.9;;;;;;;28.76;71.70996;98621.34;;;;
2021/08/10 13:39:09;;;;;;;5.9;2.8;;;;;;;29.03;74.01367;98604.51;;;;
2021/08/10 13:49:11;;;;;;;5.1;1.7;;;;;;;28.76;76.25293;98582.51;;;;
2021/08/10 13:59:11;;;;;;;9.2;2.5;;;;;;;29.07;75.51465;98583.02;;;;
2021/08/10 14:09:12;;;;;;;4;2.2;;;;;;;29.46;73.9541;98573.8;;;;
2021/08/10 14:19:14;;;;;;;4.6;2.1;;;;;;;29.86;77.97852;98563.28;;;;
2021/08/10 14:29:15;;;;;;;4.1;2.3;;;;;;;29.99;68.25293;98550.22;;;;
2021/08/10 14:39:16;;;;;;;4.8;2.7;;;;;;;30.14;70.89941;98545.06;;;;
2021/08/10 14:49:18;;;;;;;3.3;2.1;;;;;;;30.61;70.08398;98542.56;;;;
2021/08/10 14:59:19;;;;;;;6.3;2.3;;;;;;;30.56;66.91797;98548.66;;;;
2021/08/10 15:09:21;;;;;;;6;2.9;;;;;;;30.66;77.44434;98523.3;;;;
2021/08/10 15:19:22;;;;;;;5.1;2.6;;;;;;;31.69;68.4707;98520.81;;;;
2021/08/10 15:29:24;;;;;;;3.3;1.3;;;;;;;34.2;59.19629;98522.14;;;;
2021/08/10 15:39:26;;;;;;;4.4;1.9;;;;;;;35.29;46.80762;98530.26;;;;
2021/08/10 15:49:28;;;;;;;4.4;2;;;;;;;36.14;49.66504;98523.14;;;;
2021/08/10 15:59:30;;;;;;;3.8;1.8;;;;;;;36.28;43.55371;98513.97;;;;
2021/08/10 16:09:32;;;;;;;3.5;1.7;;;;;;;36.77;43.69629;98502.07;;;;
2021/08/10 16:19:35;;;;;;;3.9;1.5;;;;;;;36.19;45.96973;98482.41;;;;
2021/08/10 16:29:37;;;;;;;5.3;2.4;;;;;;;33.45;52.17676;98459.49;;;;
2021/08/10 16:39:39;;;;;;;6;1.8;;;;;;;31.21;61.93555;98459.95;;;;
2021/08/10 16:49:41;;;;;;;4.6;1.6;;;;;;;29.65;65.53125;98442.35;;;;
2021/08/10 16:59:43;;;;;;;4.8;2.9;;;;;;;28.55;77.16699;98446.25;;;;
2021/08/10 17:09:44;;;;;;;7.3;3.4;;;;;;;27.48;83.9082;98453.16;;;;
2021/08/10 17:19:45;;;;;;;6.4;3.8;;;;;;;26.59;88.51758;98442.69;;;;
2021/08/10 17:29:46;;;;;;;5.9;3.3;;;;;;;25.9;94.81348;98457;;;;
2021/08/10 17:39:47;;;;;;;11.7;5.5;;;;;;;25.09;99.96582;98458.59;;;;
2021/08/10 17:49:48;;;;;;;8.2;5.6;;;;;;;24.9;96.32031;98475.67;;;;
2021/08/10 17:59:49;;;;;;;10.7;5.6;;;;;;;24.32;100;98473.64;;;;
2021/08/10 18:09:50;;;;;;;11.9;4.9;;;;;;;23.72;100;98480.12;;;;
2021/08/10 18:19:50;;;;;;;5.8;4;;;;;;;23.36;100;98475.84;;;;
2021/08/10 18:29:51;;;;;;;7;3.8;;;;;;;22.95;100;98500.17;;;;
2021/08/10 18:39:53;;;;;;;9.7;4.5;;;;;;;22.73;100;98521.36;;;;
2021/08/10 18:49:53;;;;;;;7;3.8;;;;;;;22.38;100;98529.46;;;;
2021/08/10 18:59:53;;;;;;;8;4.5;;;;;;;22.06;100;98535.59;;;;
2021/08/10 19:09:53;;;;;;;6.4;4.5;;;;;;;21.8;100;98522.08;;;;
2021/08/10 19:19:53;;;;;;;9.6;4.4;;;;;;;21.78;100;98516.2;;;;
2021/08/10 19:29:53;;;;;;;7;4.3;;;;;;;21.57;100;98503.14;;;;
2021/08/10 19:39:53;;;;;;;9.1;5.5;;;;;;;21.35;100;98509.63;;;;
2021/08/10 19:49:54;;;;;;;6.9;4.7;;;;;;;21.16;100;98512.63;;;;
2021/08/10 19:59:55;;;;;;;7.8;3.9;;;;;;;20.79;100;98509.88;;;;
2021/08/10 20:09:54;;;;;;;7.7;3.4;;;;;;;20.61;100;98527.31;;;;
2021/08/10 20:19:54;;;;;;;7.2;4.6;;;;;;;20.43;100;98518.91;;;;
2021/08/10 20:29:54;;;;;;;12.9;4.5;;;;;;;20.25;100;98534.29;;;;
2021/08/10 20:39:54;;;;;;;8.8;3.9;;;;;;;19.93;100;98545.61;;;;
2021/08/10 20:49:54;;;;;;;12.7;9.6;;;;;;;19.58;100;98542.34;;;;
2021/08/10 20:59:54;;;;;;;9.9;6.4;;;;;;;19.26;100;98544.57;;;;
2021/08/10 21:09:54;;;;;;;7.3;5.4;;;;;;;19.08;100;98560.66;;;;
2021/08/10 21:19:54;;;;;;;10;5.5;;;;;;;18.96;100;98577.2;;;;
2021/08/10 21:29:54;;;;;;;8.1;5.4;;;;;;;18.79;100;98585.07;;;;
2021/08/10 21:39:54;;;;;;;7.6;4.3;;;;;;;18.68;100;98603.18;;;;
2021/08/10 21:49:53;;;;;;;10.8;5.8;;;;;;;18.57;100;98608.42;;;;
2021/08/10 21:59:53;;;;;;;12.2;5.5;;;;;;;18.41;100;98605.75;;;;
2021/08/10 22:09:53;;;;;;;8.6;5.1;;;;;;;18.44;100;98615.94;;;;
2021/08/10 22:19:53;;;;;;;7.3;4.7;;;;;;;18.24;100;98613.55;;;;
2021/08/10 22:29:53;;;;;;;12.1;5.8;;;;;;;18.04;100;98593.64;;;;
2021/08/10 22:39:56;;;;;;;10.1;5.1;;;;;;;17.88;100;98614.69;;;;
2021/08/10 22:49:53;;;;;;;7.5;4.6;;;;;;;17.69;100;98626.33;;;;
2021/08/10 22:59:53;;;;;;;10.5;7.6;;;;;;;17.54;100;98619.7;;;;
2021/08/10 23:09:51;;;;;;;13.3;7.9;;;;;;;17.37;100;98605.64;;;;
2021/08/10 23:19:51;;;;;;;10.4;6.6;;;;;;;17.16;100;98613.27;;;;
2021/08/10 23:29:51;;;;;;;13.5;7.1;;;;;;;17.31;100;98648.72;;;;
2021/08/10 23:39:51;;;;;;;14;5.6;;;;;;;17.62;100;98693.5;;;;
2021/08/10 23:49:51;;;;;;;9.4;5.6;;;;;;;17.78;100;98653.4;;;;
2021/08/10 23:59:50;;;;;;;7.8;5.2;;;;;;;17.79;100;98608.64;;;;
